Live aus Altenrhein
LIVE
LSZR 191020Z 28006KT 9000 NSC 13/11 Q1016 NOSIG RMK I
Zeitraffer heute
2017-10-19 00:14:58
LSZR 182150Z AUTO VRB02KT 4100 BR NCD 08/08 Q1016 REDZ
Zeitraffer gestern
2017-10-18 00:14:53
LSZR 172150Z AUTO 12002KT 9999 NCD 10/08 Q1020
Zeitraffer vor 3 Tagen
2017-10-16 00:14:55
LSZR 152150Z AUTO 21002KT 5000 NCD 08/07 Q1028